Terminal Aerodrome Forecast
Issued by NWS

Home | Current Version | Previous Version | Text Only | Print | Product List | Glossary On
Versions: 1 2 3 4 5 6 7 8 9 10 11 12 13 14
000
FTUS44 KLZK 011700
TAFBPK
TAF
KBPK 011740Z 0118/0218 13007KT P6SM VCTS SCT008 OVC012CB
     FM012200 16010KT P6SM BKN025
      TEMPO 0202/0206 3SM TSRA BR OVC015CB
     FM020600 20010KT 5SM BR BKN012 PROB30 0212/0218 3SM -TSRA BR
      OVC015CB=

USA.gov is the U.S. government's official web portal to all federal, state and local government web resources and services.